One September — WDG2359 — position and weather

sailwx.info

Track history (hours):
 
Tides and Currents Weather Stations Pressure Air Temp Water Temp Dewpoint Dewpoint Depression Visibility Wind Speed Wind Dir Waves Ship Positions

One September

Owner: Hechtkopf, Michael J, Virginia Beach, VA. More information available from US FCC via Universal Licensing System and Coast Guard Vessel Documentation Center.

Last reported at 2017-Jul-17 11:56 UTC. Time now 2017-Aug-17 11:46 UTC.
Position N 39°32' W 075°50'.
Warning: this ship's position is 30 days out of date.

Length 17 m.

Type: Pleasure craft. MMSI: 367514840.

Date/timePositionNaut miles runAvg speedWind from/ knotsBaromVisibWave heightAir tempDewpointWater temp
2017-Jul-17 11:56N 39°32' W 075°50'511.3
2017-Jul-17 11:30N 39°32' W 075°44'817.1
2017-Jul-17 11:00N 39°34' W 075°33'2 0.1
2017-Jul-16 17:14N 39°34' W 075°35'1 2.9
2017-Jul-16 17:00N 39°35' W 075°35'4 7.7
2017-Jul-16 16:30N 39°31' W 075°33'4 8.3
2017-Jul-16 15:59N 39°27' W 075°33'4 8.3
2017-Jul-16 15:30N 39°24' W 075°29'64 2.4
2017-Jul-15 13:03N 39°39' W 074°09'118.8
2017-Jul-15 13:00N 39°40' W 074°08'  
2017-Jul-12 18:38N 39°48' W 074°11'2 7.6
2017-Jul-12 18:25N 39°46' W 074°10'0 0.3
2017-Jul-12 17:50N 39°47' W 074°10'  
Track history (hours):
 
Tides and Currents Weather Stations Pressure Air Temp Water Temp Dewpoint Dewpoint Depression Visibility Wind Speed Wind Dir Waves Ship Positions

One September

Owner: Hechtkopf, Michael J, Virginia Beach, VA. More information available from US FCC via Universal Licensing System and Coast Guard Vessel Documentation Center.

Last reported at 2017-Jul-17 11:56 UTC. Time now 2017-Aug-17 11:46 UTC.
Position N 39°32' W 075°50'.
Warning: this ship's position is 30 days out of date.

Length 17 m.

Type: Pleasure craft. MMSI: 367514840.

Date/timePositionNaut miles runAvg speedWind from/ knotsBaromVisibWave heightAir tempDewpointWater temp
2017-Jul-17 11:56N 39°32' W 075°50'511.3
2017-Jul-17 11:30N 39°32' W 075°44'817.1
2017-Jul-17 11:00N 39°34' W 075°33'2 0.1
2017-Jul-16 17:14N 39°34' W 075°35'1 2.9
2017-Jul-16 17:00N 39°35' W 075°35'4 7.7
2017-Jul-16 16:30N 39°31' W 075°33'4 8.3
2017-Jul-16 15:59N 39°27' W 075°33'4 8.3
2017-Jul-16 15:30N 39°24' W 075°29'64 2.4
2017-Jul-15 13:03N 39°39' W 074°09'118.8
2017-Jul-15 13:00N 39°40' W 074°08'  
2017-Jul-12 18:38N 39°48' W 074°11'2 7.6
2017-Jul-12 18:25N 39°46' W 074°10'0 0.3
2017-Jul-12 17:50N 39°47' W 074°10'  

Dump ship's entire track history